sensor_id;sensor_type;location;lat;lon;timestamp;P1;durP1;ratioP1;P2;durP2;ratioP2
58354;SDS011;44160;49.080;19.302;2023-04-26T00:00:24;10.05;;;5.35;;
58354;SDS011;44160;49.080;19.302;2023-04-26T00:02:53;9.38;;;5.97;;
58354;SDS011;44160;49.080;19.302;2023-04-26T00:05:19;6.55;;;5.30;;
58354;SDS011;44160;49.080;19.302;2023-04-26T00:07:46;8.13;;;5.25;;
58354;SDS011;44160;49.080;19.302;2023-04-26T00:10:14;9.27;;;5.50;;
58354;SDS011;44160;49.080;19.302;2023-04-26T00:12:40;8.25;;;5.15;;
58354;SDS011;44160;49.080;19.302;2023-04-26T00:15:07;8.32;;;5.18;;
58354;SDS011;44160;49.080;19.302;2023-04-26T00:17:35;11.75;;;5.88;;
58354;SDS011;44160;49.080;19.302;2023-04-26T00:20:01;7.28;;;5.68;;
58354;SDS011;44160;49.080;19.302;2023-04-26T00:22:30;12.52;;;5.25;;
58354;SDS011;44160;49.080;19.302;2023-04-26T00:24:56;5.63;;;4.97;;
58354;SDS011;44160;49.080;19.302;2023-04-26T00:27:23;6.50;;;4.97;;
58354;SDS011;44160;49.080;19.302;2023-04-26T00:29:49;8.18;;;4.43;;
58354;SDS011;44160;49.080;19.302;2023-04-26T00:32:15;6.97;;;5.07;;
58354;SDS011;44160;49.080;19.302;2023-04-26T00:34:41;6.35;;;5.00;;
58354;SDS011;44160;49.080;19.302;2023-04-26T00:37:07;9.57;;;4.82;;
58354;SDS011;44160;49.080;19.302;2023-04-26T00:39:33;6.97;;;4.20;;
58354;SDS011;44160;49.080;19.302;2023-04-26T00:41:59;6.50;;;4.00;;
58354;SDS011;44160;49.080;19.302;2023-04-26T00:44:25;6.25;;;3.88;;
58354;SDS011;44160;49.080;19.302;2023-04-26T00:46:52;4.38;;;3.28;;
58354;SDS011;44160;49.080;19.302;2023-04-26T00:49:19;4.55;;;3.20;;
58354;SDS011;44160;49.080;19.302;2023-04-26T00:51:46;4.05;;;3.28;;
58354;SDS011;44160;49.080;19.302;2023-04-26T00:54:13;4.75;;;3.53;;
58354;SDS011;44160;49.080;19.302;2023-04-26T00:56:40;4.13;;;2.80;;
58354;SDS011;44160;49.080;19.302;2023-04-26T00:59:06;4.30;;;2.15;;
58354;SDS011;44160;49.080;19.302;2023-04-26T01:01:33;2.28;;;2.08;;
58354;SDS011;44160;49.080;19.302;2023-04-26T01:03:59;4.25;;;2.60;;
58354;SDS011;44160;49.080;19.302;2023-04-26T01:06:27;2.60;;;2.40;;
58354;SDS011;44160;49.080;19.302;2023-04-26T01:08:56;2.85;;;2.55;;
58354;SDS011;44160;49.080;19.302;2023-04-26T01:11:23;2.90;;;2.42;;
58354;SDS011;44160;49.080;19.302;2023-04-26T01:13:49;3.53;;;2.30;;
58354;SDS011;44160;49.080;19.302;2023-04-26T01:16:16;3.47;;;2.47;;
58354;SDS011;44160;49.080;19.302;2023-04-26T01:18:49;3.55;;;2.50;;
58354;SDS011;44160;49.080;19.302;2023-04-26T01:21:20;5.45;;;2.47;;
58354;SDS011;44160;49.080;19.302;2023-04-26T01:23:46;3.13;;;2.00;;
58354;SDS011;44160;49.080;19.302;2023-04-26T01:26:12;4.40;;;2.58;;
58354;SDS011;44160;49.080;19.302;2023-04-26T01:28:38;7.90;;;3.00;;
58354;SDS011;44160;49.080;19.302;2023-04-26T01:31:05;6.30;;;3.28;;
58354;SDS011;44160;49.080;19.302;2023-04-26T01:33:31;6.65;;;3.30;;
58354;SDS011;44160;49.080;19.302;2023-04-26T01:35:57;8.85;;;3.78;;
58354;SDS011;44160;49.080;19.302;2023-04-26T01:38:23;6.07;;;3.25;;
58354;SDS011;44160;49.080;19.302;2023-04-26T01:40:49;7.40;;;3.58;;
58354;SDS011;44160;49.080;19.302;2023-04-26T01:43:15;5.63;;;3.78;;
58354;SDS011;44160;49.080;19.302;2023-04-26T01:45:45;7.07;;;3.22;;
58354;SDS011;44160;49.080;19.302;2023-04-26T01:48:14;5.13;;;3.22;;
58354;SDS011;44160;49.080;19.302;2023-04-26T01:50:40;6.90;;;3.90;;
58354;SDS011;44160;49.080;19.302;2023-04-26T01:53:06;8.23;;;3.67;;
58354;SDS011;44160;49.080;19.302;2023-04-26T01:55:33;5.57;;;3.50;;
58354;SDS011;44160;49.080;19.302;2023-04-26T01:57:59;7.75;;;3.58;;
58354;SDS011;44160;49.080;19.302;2023-04-26T02:00:25;4.82;;;3.72;;
58354;SDS011;44160;49.080;19.302;2023-04-26T02:02:55;7.72;;;3.92;;
58354;SDS011;44160;49.080;19.302;2023-04-26T02:05:22;5.75;;;3.63;;
58354;SDS011;44160;49.080;19.302;2023-04-26T02:07:48;8.20;;;3.78;;
58354;SDS011;44160;49.080;19.302;2023-04-26T02:10:15;7.05;;;3.70;;
58354;SDS011;44160;49.080;19.302;2023-04-26T02:12:41;10.85;;;4.07;;
58354;SDS011;44160;49.080;19.302;2023-04-26T02:15:08;11.30;;;4.40;;
58354;SDS011;44160;49.080;19.302;2023-04-26T02:17:34;8.43;;;4.38;;
58354;SDS011;44160;49.080;19.302;2023-04-26T02:20:02;4.25;;;3.55;;
58354;SDS011;44160;49.080;19.302;2023-04-26T02:22:28;8.95;;;4.30;;
58354;SDS011;44160;49.080;19.302;2023-04-26T02:24:55;5.82;;;4.07;;
58354;SDS011;44160;49.080;19.302;2023-04-26T02:27:21;7.15;;;4.15;;
58354;SDS011;44160;49.080;19.302;2023-04-26T02:29:47;16.45;;;3.97;;
58354;SDS011;44160;49.080;19.302;2023-04-26T02:32:13;8.13;;;4.43;;
58354;SDS011;44160;49.080;19.302;2023-04-26T02:34:39;5.20;;;3.80;;
58354;SDS011;44160;49.080;19.302;2023-04-26T02:37:05;6.72;;;4.10;;
58354;SDS011;44160;49.080;19.302;2023-04-26T02:39:31;10.65;;;4.55;;
58354;SDS011;44160;49.080;19.302;2023-04-26T02:41:57;6.88;;;4.28;;
58354;SDS011;44160;49.080;19.302;2023-04-26T02:44:23;10.70;;;3.88;;
58354;SDS011;44160;49.080;19.302;2023-04-26T02:46:49;10.35;;;4.85;;
58354;SDS011;44160;49.080;19.302;2023-04-26T02:49:15;7.97;;;4.40;;
58354;SDS011;44160;49.080;19.302;2023-04-26T02:51:42;7.90;;;3.95;;
58354;SDS011;44160;49.080;19.302;2023-04-26T02:54:08;6.78;;;4.50;;
58354;SDS011;44160;49.080;19.302;2023-04-26T02:56:34;10.25;;;5.05;;
58354;SDS011;44160;49.080;19.302;2023-04-26T02:59:00;6.97;;;4.60;;
58354;SDS011;44160;49.080;19.302;2023-04-26T03:01:26;10.45;;;4.85;;
58354;SDS011;44160;49.080;19.302;2023-04-26T03:03:53;6.93;;;4.45;;
58354;SDS011;44160;49.080;19.302;2023-04-26T03:06:19;10.05;;;5.20;;
58354;SDS011;44160;49.080;19.302;2023-04-26T03:08:45;14.77;;;5.38;;
58354;SDS011;44160;49.080;19.302;2023-04-26T03:11:11;19.27;;;5.53;;
58354;SDS011;44160;49.080;19.302;2023-04-26T03:13:37;10.68;;;5.55;;
58354;SDS011;44160;49.080;19.302;2023-04-26T03:16:04;12.05;;;5.63;;
58354;SDS011;44160;49.080;19.302;2023-04-26T03:18:30;9.63;;;5.00;;
58354;SDS011;44160;49.080;19.302;2023-04-26T03:20:56;12.70;;;5.32;;
58354;SDS011;44160;49.080;19.302;2023-04-26T03:23:23;11.48;;;5.07;;
58354;SDS011;44160;49.080;19.302;2023-04-26T03:25:49;10.98;;;5.28;;
58354;SDS011;44160;49.080;19.302;2023-04-26T03:28:15;9.45;;;5.15;;
58354;SDS011;44160;49.080;19.302;2023-04-26T03:30:42;10.73;;;4.85;;
58354;SDS011;44160;49.080;19.302;2023-04-26T03:33:08;10.13;;;5.55;;
58354;SDS011;44160;49.080;19.302;2023-04-26T03:35:34;12.55;;;5.88;;
58354;SDS011;44160;49.080;19.302;2023-04-26T03:38:00;9.75;;;5.05;;
58354;SDS011;44160;49.080;19.302;2023-04-26T03:40:26;11.18;;;5.57;;
58354;SDS011;44160;49.080;19.302;2023-04-26T03:42:53;15.27;;;5.40;;
58354;SDS011;44160;49.080;19.302;2023-04-26T03:45:19;9.77;;;5.90;;
58354;SDS011;44160;49.080;19.302;2023-04-26T03:47:45;13.30;;;5.90;;
58354;SDS011;44160;49.080;19.302;2023-04-26T03:50:11;7.00;;;4.70;;
58354;SDS011;44160;49.080;19.302;2023-04-26T03:52:37;9.65;;;5.10;;
58354;SDS011;44160;49.080;19.302;2023-04-26T03:55:03;13.93;;;5.30;;
58354;SDS011;44160;49.080;19.302;2023-04-26T03:57:29;12.32;;;5.18;;
58354;SDS011;44160;49.080;19.302;2023-04-26T03:59:55;6.47;;;4.80;;
58354;SDS011;44160;49.080;19.302;2023-04-26T04:02:22;13.57;;;6.85;;
58354;SDS011;44160;49.080;19.302;2023-04-26T04:04:48;8.82;;;6.18;;
58354;SDS011;44160;49.080;19.302;2023-04-26T04:07:14;12.73;;;5.82;;
58354;SDS011;44160;49.080;19.302;2023-04-26T04:09:40;10.77;;;5.53;;
58354;SDS011;44160;49.080;19.302;2023-04-26T04:12:06;10.25;;;5.65;;
58354;SDS011;44160;49.080;19.302;2023-04-26T04:14:32;12.73;;;5.47;;
58354;SDS011;44160;49.080;19.302;2023-04-26T04:16:58;8.00;;;5.15;;
58354;SDS011;44160;49.080;19.302;2023-04-26T04:19:24;13.77;;;6.32;;
58354;SDS011;44160;49.080;19.302;2023-04-26T04:21:50;11.43;;;5.30;;
58354;SDS011;44160;49.080;19.302;2023-04-26T04:24:16;11.57;;;6.03;;
58354;SDS011;44160;49.080;19.302;2023-04-26T04:26:44;11.70;;;5.03;;
58354;SDS011;44160;49.080;19.302;2023-04-26T04:29:10;11.65;;;4.32;;
58354;SDS011;44160;49.080;19.302;2023-04-26T04:31:36;11.55;;;4.47;;
58354;SDS011;44160;49.080;19.302;2023-04-26T04:34:04;7.68;;;4.18;;
58354;SDS011;44160;49.080;19.302;2023-04-26T04:36:30;9.45;;;4.45;;
58354;SDS011;44160;49.080;19.302;2023-04-26T04:38:57;12.00;;;4.80;;
58354;SDS011;44160;49.080;19.302;2023-04-26T04:41:23;9.18;;;3.92;;
58354;SDS011;44160;49.080;19.302;2023-04-26T04:43:49;15.50;;;4.70;;
58354;SDS011;44160;49.080;19.302;2023-04-26T04:46:15;9.07;;;5.53;;
58354;SDS011;44160;49.080;19.302;2023-04-26T04:48:41;8.80;;;4.45;;
58354;SDS011;44160;49.080;19.302;2023-04-26T04:51:09;13.68;;;5.90;;
58354;SDS011;44160;49.080;19.302;2023-04-26T04:53:36;12.52;;;4.28;;
58354;SDS011;44160;49.080;19.302;2023-04-26T04:56:02;12.20;;;3.90;;
58354;SDS011;44160;49.080;19.302;2023-04-26T04:58:28;6.90;;;3.80;;
58354;SDS011;44160;49.080;19.302;2023-04-26T05:00:54;5.57;;;3.60;;
58354;SDS011;44160;49.080;19.302;2023-04-26T05:03:20;8.13;;;3.50;;
58354;SDS011;44160;49.080;19.302;2023-04-26T05:05:47;4.60;;;3.30;;
58354;SDS011;44160;49.080;19.302;2023-04-26T05:08:13;8.23;;;4.07;;
58354;SDS011;44160;49.080;19.302;2023-04-26T05:10:39;8.07;;;3.33;;
58354;SDS011;44160;49.080;19.302;2023-04-26T05:13:08;7.97;;;3.45;;
58354;SDS011;44160;49.080;19.302;2023-04-26T05:15:34;8.38;;;3.17;;
58354;SDS011;44160;49.080;19.302;2023-04-26T05:18:00;8.02;;;3.22;;
58354;SDS011;44160;49.080;19.302;2023-04-26T05:20:29;9.50;;;3.13;;
58354;SDS011;44160;49.080;19.302;2023-04-26T05:22:56;9.38;;;2.85;;
58354;SDS011;44160;49.080;19.302;2023-04-26T05:25:25;7.47;;;2.85;;
58354;SDS011;44160;49.080;19.302;2023-04-26T05:27:52;6.30;;;2.78;;
58354;SDS011;44160;49.080;19.302;2023-04-26T05:30:18;7.78;;;3.30;;
58354;SDS011;44160;49.080;19.302;2023-04-26T05:32:44;7.75;;;2.80;;
58354;SDS011;44160;49.080;19.302;2023-04-26T05:35:10;7.82;;;3.30;;
58354;SDS011;44160;49.080;19.302;2023-04-26T05:37:36;4.75;;;2.78;;
58354;SDS011;44160;49.080;19.302;2023-04-26T05:40:04;5.95;;;2.90;;
58354;SDS011;44160;49.080;19.302;2023-04-26T05:42:30;6.50;;;2.90;;
58354;SDS011;44160;49.080;19.302;2023-04-26T05:44:57;7.82;;;3.63;;
58354;SDS011;44160;49.080;19.302;2023-04-26T05:47:23;7.72;;;3.28;;
58354;SDS011;44160;49.080;19.302;2023-04-26T05:49:49;8.27;;;3.10;;
58354;SDS011;44160;49.080;19.302;2023-04-26T05:52:19;6.93;;;3.08;;
58354;SDS011;44160;49.080;19.302;2023-04-26T05:54:45;6.85;;;3.95;;
58354;SDS011;44160;49.080;19.302;2023-04-26T05:57:11;5.30;;;2.90;;
58354;SDS011;44160;49.080;19.302;2023-04-26T05:59:38;6.43;;;3.00;;
58354;SDS011;44160;49.080;19.302;2023-04-26T06:02:04;7.00;;;3.25;;
58354;SDS011;44160;49.080;19.302;2023-04-26T06:04:30;9.35;;;3.35;;
58354;SDS011;44160;49.080;19.302;2023-04-26T06:06:56;5.82;;;2.88;;
58354;SDS011;44160;49.080;19.302;2023-04-26T06:09:22;5.38;;;2.90;;
58354;SDS011;44160;49.080;19.302;2023-04-26T06:11:48;6.15;;;2.70;;
58354;SDS011;44160;49.080;19.302;2023-04-26T06:14:14;5.38;;;2.60;;
58354;SDS011;44160;49.080;19.302;2023-04-26T06:16:40;7.97;;;3.03;;
58354;SDS011;44160;49.080;19.302;2023-04-26T06:19:06;8.60;;;3.15;;
58354;SDS011;44160;49.080;19.302;2023-04-26T06:21:32;5.93;;;2.72;;
58354;SDS011;44160;49.080;19.302;2023-04-26T06:23:59;7.78;;;2.72;;
58354;SDS011;44160;49.080;19.302;2023-04-26T06:26:25;6.32;;;2.58;;
58354;SDS011;44160;49.080;19.302;2023-04-26T06:28:51;5.07;;;2.53;;
58354;SDS011;44160;49.080;19.302;2023-04-26T06:31:17;5.93;;;3.50;;
58354;SDS011;44160;49.080;19.302;2023-04-26T06:33:47;7.55;;;2.75;;
58354;SDS011;44160;49.080;19.302;2023-04-26T06:36:19;7.05;;;2.83;;
58354;SDS011;44160;49.080;19.302;2023-04-26T06:38:46;5.00;;;2.40;;
58354;SDS011;44160;49.080;19.302;2023-04-26T06:41:12;6.70;;;2.88;;
58354;SDS011;44160;49.080;19.302;2023-04-26T06:43:39;5.97;;;2.85;;
58354;SDS011;44160;49.080;19.302;2023-04-26T06:46:05;8.20;;;4.90;;
58354;SDS011;44160;49.080;19.302;2023-04-26T06:48:31;6.10;;;3.13;;
58354;SDS011;44160;49.080;19.302;2023-04-26T06:50:57;11.55;;;4.97;;
58354;SDS011;44160;49.080;19.302;2023-04-26T06:53:23;10.02;;;5.90;;
58354;SDS011;44160;49.080;19.302;2023-04-26T06:55:49;6.28;;;3.10;;
58354;SDS011;44160;49.080;19.302;2023-04-26T06:58:17;4.70;;;2.75;;
58354;SDS011;44160;49.080;19.302;2023-04-26T07:00:43;5.78;;;2.35;;
58354;SDS011;44160;49.080;19.302;2023-04-26T07:03:09;3.72;;;2.50;;
58354;SDS011;44160;49.080;19.302;2023-04-26T07:05:35;3.60;;;2.80;;
58354;SDS011;44160;49.080;19.302;2023-04-26T07:08:01;4.93;;;2.53;;
58354;SDS011;44160;49.080;19.302;2023-04-26T07:10:27;6.07;;;3.28;;
58354;SDS011;44160;49.080;19.302;2023-04-26T07:12:53;11.77;;;6.45;;
58354;SDS011;44160;49.080;19.302;2023-04-26T07:15:19;6.60;;;3.42;;
58354;SDS011;44160;49.080;19.302;2023-04-26T07:17:46;12.68;;;6.82;;
58354;SDS011;44160;49.080;19.302;2023-04-26T07:20:22;6.82;;;2.63;;
58354;SDS011;44160;49.080;19.302;2023-04-26T07:22:51;5.95;;;3.03;;
58354;SDS011;44160;49.080;19.302;2023-04-26T07:25:20;8.82;;;2.90;;
58354;SDS011;44160;49.080;19.302;2023-04-26T07:27:46;4.63;;;1.92;;
58354;SDS011;44160;49.080;19.302;2023-04-26T07:30:13;7.55;;;2.28;;
58354;SDS011;44160;49.080;19.302;2023-04-26T07:32:40;7.10;;;4.30;;
58354;SDS011;44160;49.080;19.302;2023-04-26T07:35:06;4.97;;;2.35;;
58354;SDS011;44160;49.080;19.302;2023-04-26T07:37:34;5.50;;;2.47;;
58354;SDS011;44160;49.080;19.302;2023-04-26T07:40:02;6.28;;;2.00;;
58354;SDS011;44160;49.080;19.302;2023-04-26T07:42:29;3.55;;;2.20;;
58354;SDS011;44160;49.080;19.302;2023-04-26T07:45:05;4.95;;;2.58;;
58354;SDS011;44160;49.080;19.302;2023-04-26T07:47:32;8.85;;;4.07;;
58354;SDS011;44160;49.080;19.302;2023-04-26T07:49:58;14.95;;;6.07;;
58354;SDS011;44160;49.080;19.302;2023-04-26T07:52:25;5.25;;;2.70;;
58354;SDS011;44160;49.080;19.302;2023-04-26T07:55:00;5.90;;;3.75;;
58354;SDS011;44160;49.080;19.302;2023-04-26T07:57:37;6.82;;;3.00;;
58354;SDS011;44160;49.080;19.302;2023-04-26T08:00:07;7.60;;;4.30;;
58354;SDS011;44160;49.080;19.302;2023-04-26T08:02:36;9.05;;;3.67;;
58354;SDS011;44160;49.080;19.302;2023-04-26T08:05:02;4.75;;;2.42;;
58354;SDS011;44160;49.080;19.302;2023-04-26T08:07:29;6.97;;;3.03;;
58354;SDS011;44160;49.080;19.302;2023-04-26T08:09:55;3.38;;;2.30;;
58354;SDS011;44160;49.080;19.302;2023-04-26T08:12:21;7.63;;;2.60;;
58354;SDS011;44160;49.080;19.302;2023-04-26T08:14:47;4.82;;;2.63;;
58354;SDS011;44160;49.080;19.302;2023-04-26T08:17:14;5.93;;;3.55;;
58354;SDS011;44160;49.080;19.302;2023-04-26T08:19:40;13.68;;;6.45;;
58354;SDS011;44160;49.080;19.302;2023-04-26T08:22:06;8.63;;;5.45;;
58354;SDS011;44160;49.080;19.302;2023-04-26T08:24:33;5.80;;;4.18;;
58354;SDS011;44160;49.080;19.302;2023-04-26T08:27:01;7.80;;;4.13;;
58354;SDS011;44160;49.080;19.302;2023-04-26T08:29:28;10.32;;;3.40;;
58354;SDS011;44160;49.080;19.302;2023-04-26T08:31:54;21.17;;;10.32;;
58354;SDS011;44160;49.080;19.302;2023-04-26T08:34:28;12.52;;;7.10;;
58354;SDS011;44160;49.080;19.302;2023-04-26T08:36:54;6.95;;;3.75;;
58354;SDS011;44160;49.080;19.302;2023-04-26T08:39:20;7.50;;;3.75;;
58354;SDS011;44160;49.080;19.302;2023-04-26T08:41:51;7.72;;;3.20;;
58354;SDS011;44160;49.080;19.302;2023-04-26T08:44:22;5.13;;;2.08;;
58354;SDS011;44160;49.080;19.302;2023-04-26T08:47:05;4.15;;;2.17;;
58354;SDS011;44160;49.080;19.302;2023-04-26T08:49:43;3.78;;;1.95;;
58354;SDS011;44160;49.080;19.302;2023-04-26T08:52:11;5.13;;;1.75;;
58354;SDS011;44160;49.080;19.302;2023-04-26T08:54:39;10.70;;;2.85;;
58354;SDS011;44160;49.080;19.302;2023-04-26T08:57:05;6.72;;;2.15;;
58354;SDS011;44160;49.080;19.302;2023-04-26T08:59:35;8.10;;;2.40;;
58354;SDS011;44160;49.080;19.302;2023-04-26T09:02:01;4.32;;;2.53;;
58354;SDS011;44160;49.080;19.302;2023-04-26T09:04:28;7.28;;;2.28;;
58354;SDS011;44160;49.080;19.302;2023-04-26T09:06:54;5.32;;;3.00;;
58354;SDS011;44160;49.080;19.302;2023-04-26T09:09:24;5.53;;;3.38;;
58354;SDS011;44160;49.080;19.302;2023-04-26T09:14:21;5.80;;;2.20;;
58354;SDS011;44160;49.080;19.302;2023-04-26T09:16:47;5.32;;;2.25;;
58354;SDS011;44160;49.080;19.302;2023-04-26T09:19:13;2.72;;;2.03;;
58354;SDS011;44160;49.080;19.302;2023-04-26T09:21:43;4.22;;;2.40;;
58354;SDS011;44160;49.080;19.302;2023-04-26T09:24:11;4.88;;;2.70;;
58354;SDS011;44160;49.080;19.302;2023-04-26T09:26:37;4.32;;;2.30;;
58354;SDS011;44160;49.080;19.302;2023-04-26T09:29:10;4.05;;;2.50;;
58354;SDS011;44160;49.080;19.302;2023-04-26T09:31:37;5.00;;;2.40;;
58354;SDS011;44160;49.080;19.302;2023-04-26T09:34:08;4.05;;;2.10;;
58354;SDS011;44160;49.080;19.302;2023-04-26T09:36:51;6.10;;;2.20;;
58354;SDS011;44160;49.080;19.302;2023-04-26T09:42:02;6.30;;;2.60;;
58354;SDS011;44160;49.080;19.302;2023-04-26T09:44:28;3.83;;;2.30;;
58354;SDS011;44160;49.080;19.302;2023-04-26T09:47:02;4.70;;;2.33;;
58354;SDS011;44160;49.080;19.302;2023-04-26T09:49:30;4.47;;;2.53;;
58354;SDS011;44160;49.080;19.302;2023-04-26T09:52:00;2.95;;;1.90;;
58354;SDS011;44160;49.080;19.302;2023-04-26T09:57:05;5.32;;;1.90;;
58354;SDS011;44160;49.080;19.302;2023-04-26T09:59:41;7.75;;;1.90;;
58354;SDS011;44160;49.080;19.302;2023-04-26T10:02:15;3.92;;;1.90;;
58354;SDS011;44160;49.080;19.302;2023-04-26T10:04:44;7.93;;;2.10;;
58354;SDS011;44160;49.080;19.302;2023-04-26T10:07:16;4.43;;;1.98;;
58354;SDS011;44160;49.080;19.302;2023-04-26T10:09:43;3.90;;;2.33;;
58354;SDS011;44160;49.080;19.302;2023-04-26T10:12:10;3.85;;;2.10;;
58354;SDS011;44160;49.080;19.302;2023-04-26T10:14:38;4.93;;;1.92;;
58354;SDS011;44160;49.080;19.302;2023-04-26T10:17:04;7.78;;;2.10;;
58354;SDS011;44160;49.080;19.302;2023-04-26T10:19:33;7.60;;;2.40;;
58354;SDS011;44160;49.080;19.302;2023-04-26T10:22:04;5.25;;;2.05;;
58354;SDS011;44160;49.080;19.302;2023-04-26T10:24:30;3.40;;;1.77;;
58354;SDS011;44160;49.080;19.302;2023-04-26T10:27:09;6.10;;;2.17;;
58354;SDS011;44160;49.080;19.302;2023-04-26T10:32:26;4.03;;;2.10;;
58354;SDS011;44160;49.080;19.302;2023-04-26T10:35:11;4.25;;;1.85;;
58354;SDS011;44160;49.080;19.302;2023-04-26T10:40:36;4.25;;;1.85;;
58354;SDS011;44160;49.080;19.302;2023-04-26T10:45:46;5.72;;;1.80;;
58354;SDS011;44160;49.080;19.302;2023-04-26T10:51:24;4.38;;;1.52;;
58354;SDS011;44160;49.080;19.302;2023-04-26T10:59:08;4.10;;;2.38;;
58354;SDS011;44160;49.080;19.302;2023-04-26T11:01:41;5.35;;;2.00;;
58354;SDS011;44160;49.080;19.302;2023-04-26T11:04:19;3.13;;;1.80;;
58354;SDS011;44160;49.080;19.302;2023-04-26T11:11:58;4.57;;;1.50;;
58354;SDS011;44160;49.080;19.302;2023-04-26T11:14:25;4.90;;;1.83;;
58354;SDS011;44160;49.080;19.302;2023-04-26T11:16:51;3.53;;;1.45;;
58354;SDS011;44160;49.080;19.302;2023-04-26T11:19:19;3.53;;;1.67;;
58354;SDS011;44160;49.080;19.302;2023-04-26T11:21:46;5.47;;;2.00;;
58354;SDS011;44160;49.080;19.302;2023-04-26T11:24:15;2.10;;;1.73;;
58354;SDS011;44160;49.080;19.302;2023-04-26T11:26:43;2.25;;;1.80;;
58354;SDS011;44160;49.080;19.302;2023-04-26T11:29:19;4.68;;;2.00;;
58354;SDS011;44160;49.080;19.302;2023-04-26T11:31:57;7.25;;;2.80;;
58354;SDS011;44160;49.080;19.302;2023-04-26T11:37:02;7.15;;;1.83;;
58354;SDS011;44160;49.080;19.302;2023-04-26T11:39:31;2.20;;;1.23;;
58354;SDS011;44160;49.080;19.302;2023-04-26T11:42:07;2.60;;;1.80;;
58354;SDS011;44160;49.080;19.302;2023-04-26T11:44:34;7.10;;;1.98;;
58354;SDS011;44160;49.080;19.302;2023-04-26T11:47:00;3.90;;;1.40;;
58354;SDS011;44160;49.080;19.302;2023-04-26T11:49:30;2.97;;;1.60;;
58354;SDS011;44160;49.080;19.302;2023-04-26T11:51:56;4.63;;;2.05;;
58354;SDS011;44160;49.080;19.302;2023-04-26T11:54:28;3.13;;;1.65;;
58354;SDS011;44160;49.080;19.302;2023-04-26T11:56:54;3.05;;;1.45;;
58354;SDS011;44160;49.080;19.302;2023-04-26T11:59:24;3.10;;;1.50;;
58354;SDS011;44160;49.080;19.302;2023-04-26T12:01:50;3.92;;;1.90;;
58354;SDS011;44160;49.080;19.302;2023-04-26T12:04:19;5.28;;;2.50;;
58354;SDS011;44160;49.080;19.302;2023-04-26T12:06:52;5.05;;;2.25;;
58354;SDS011;44160;49.080;19.302;2023-04-26T12:09:21;6.00;;;1.92;;
58354;SDS011;44160;49.080;19.302;2023-04-26T12:11:52;3.08;;;1.40;;
58354;SDS011;44160;49.080;19.302;2023-04-26T12:14:18;2.17;;;1.27;;
58354;SDS011;44160;49.080;19.302;2023-04-26T12:16:47;3.83;;;1.90;;
58354;SDS011;44160;49.080;19.302;2023-04-26T12:19:21;3.65;;;1.83;;
58354;SDS011;44160;49.080;19.302;2023-04-26T12:21:48;8.05;;;5.25;;
58354;SDS011;44160;49.080;19.302;2023-04-26T12:24:28;4.10;;;2.53;;
58354;SDS011;44160;49.080;19.302;2023-04-26T12:26:58;2.90;;;1.63;;
58354;SDS011;44160;49.080;19.302;2023-04-26T12:29:25;7.47;;;2.90;;
58354;SDS011;44160;49.080;19.302;2023-04-26T12:31:52;5.03;;;2.50;;
58354;SDS011;44160;49.080;19.302;2023-04-26T12:34:18;30.45;;;19.13;;
58354;SDS011;44160;49.080;19.302;2023-04-26T12:36:44;14.65;;;7.38;;
58354;SDS011;44160;49.080;19.302;2023-04-26T12:39:11;5.63;;;4.38;;
58354;SDS011;44160;49.080;19.302;2023-04-26T12:41:38;7.35;;;3.75;;
58354;SDS011;44160;49.080;19.302;2023-04-26T12:44:08;5.22;;;3.00;;
58354;SDS011;44160;49.080;19.302;2023-04-26T12:46:35;2.75;;;1.60;;
58354;SDS011;44160;49.080;19.302;2023-04-26T12:49:01;2.22;;;1.70;;
58354;SDS011;44160;49.080;19.302;2023-04-26T12:51:27;3.33;;;1.67;;
58354;SDS011;44160;49.080;19.302;2023-04-26T12:53:56;3.28;;;1.63;;
58354;SDS011;44160;49.080;19.302;2023-04-26T12:56:23;3.22;;;2.13;;
58354;SDS011;44160;49.080;19.302;2023-04-26T12:58:51;6.28;;;2.78;;
58354;SDS011;44160;49.080;19.302;2023-04-26T13:01:18;6.30;;;2.63;;
58354;SDS011;44160;49.080;19.302;2023-04-26T13:03:44;4.00;;;1.90;;
58354;SDS011;44160;49.080;19.302;2023-04-26T13:06:10;12.57;;;5.97;;
58354;SDS011;44160;49.080;19.302;2023-04-26T13:08:37;12.18;;;4.75;;
58354;SDS011;44160;49.080;19.302;2023-04-26T13:11:03;8.57;;;2.53;;
58354;SDS011;44160;49.080;19.302;2023-04-26T13:13:30;3.10;;;1.40;;
58354;SDS011;44160;49.080;19.302;2023-04-26T13:15:59;5.18;;;2.35;;
58354;SDS011;44160;49.080;19.302;2023-04-26T13:18:25;3.75;;;1.88;;
58354;SDS011;44160;49.080;19.302;2023-04-26T13:20:51;10.27;;;2.38;;
58354;SDS011;44160;49.080;19.302;2023-04-26T13:23:20;4.20;;;2.40;;
58354;SDS011;44160;49.080;19.302;2023-04-26T13:25:46;3.38;;;2.05;;
58354;SDS011;44160;49.080;19.302;2023-04-26T13:28:13;3.50;;;2.03;;
58354;SDS011;44160;49.080;19.302;2023-04-26T13:30:39;6.60;;;1.95;;
58354;SDS011;44160;49.080;19.302;2023-04-26T13:33:11;3.47;;;1.58;;
58354;SDS011;44160;49.080;19.302;2023-04-26T13:35:37;5.57;;;1.92;;
58354;SDS011;44160;49.080;19.302;2023-04-26T13:38:04;5.35;;;2.45;;
58354;SDS011;44160;49.080;19.302;2023-04-26T13:40:30;4.95;;;2.95;;
58354;SDS011;44160;49.080;19.302;2023-04-26T13:42:57;4.63;;;3.00;;
58354;SDS011;44160;49.080;19.302;2023-04-26T13:45:23;4.22;;;2.22;;
58354;SDS011;44160;49.080;19.302;2023-04-26T13:47:49;5.60;;;1.98;;
58354;SDS011;44160;49.080;19.302;2023-04-26T13:50:18;5.18;;;2.15;;
58354;SDS011;44160;49.080;19.302;2023-04-26T13:52:45;4.38;;;1.90;;
58354;SDS011;44160;49.080;19.302;2023-04-26T13:55:20;3.97;;;1.98;;
58354;SDS011;44160;49.080;19.302;2023-04-26T13:57:46;2.10;;;1.70;;
58354;SDS011;44160;49.080;19.302;2023-04-26T14:00:13;3.92;;;2.10;;
58354;SDS011;44160;49.080;19.302;2023-04-26T14:02:42;3.42;;;1.92;;
58354;SDS011;44160;49.080;19.302;2023-04-26T14:05:08;5.15;;;1.52;;
58354;SDS011;44160;49.080;19.302;2023-04-26T14:07:34;2.55;;;1.63;;
58354;SDS011;44160;49.080;19.302;2023-04-26T14:10:00;4.00;;;1.77;;
58354;SDS011;44160;49.080;19.302;2023-04-26T14:12:27;8.25;;;1.77;;
58354;SDS011;44160;49.080;19.302;2023-04-26T14:14:59;2.97;;;1.27;;
58354;SDS011;44160;49.080;19.302;2023-04-26T14:17:28;2.42;;;1.80;;
58354;SDS011;44160;49.080;19.302;2023-04-26T14:19:57;4.63;;;1.90;;
58354;SDS011;44160;49.080;19.302;2023-04-26T14:22:25;2.95;;;1.50;;
58354;SDS011;44160;49.080;19.302;2023-04-26T14:24:51;2.95;;;1.88;;
58354;SDS011;44160;49.080;19.302;2023-04-26T14:27:20;2.95;;;1.77;;
58354;SDS011;44160;49.080;19.302;2023-04-26T14:29:49;5.05;;;1.45;;
58354;SDS011;44160;49.080;19.302;2023-04-26T14:32:15;2.10;;;1.40;;
58354;SDS011;44160;49.080;19.302;2023-04-26T14:34:45;3.00;;;1.77;;
58354;SDS011;44160;49.080;19.302;2023-04-26T14:37:19;2.80;;;1.40;;
58354;SDS011;44160;49.080;19.302;2023-04-26T14:39:48;2.28;;;1.50;;
58354;SDS011;44160;49.080;19.302;2023-04-26T14:42:15;3.15;;;1.70;;
58354;SDS011;44160;49.080;19.302;2023-04-26T14:44:44;3.15;;;1.73;;
58354;SDS011;44160;49.080;19.302;2023-04-26T14:47:30;5.55;;;1.77;;
58354;SDS011;44160;49.080;19.302;2023-04-26T14:49:57;2.10;;;1.63;;
58354;SDS011;44160;49.080;19.302;2023-04-26T14:52:23;5.05;;;2.00;;
58354;SDS011;44160;49.080;19.302;2023-04-26T14:54:51;3.33;;;1.75;;
58354;SDS011;44160;49.080;19.302;2023-04-26T14:57:18;5.07;;;2.78;;
58354;SDS011;44160;49.080;19.302;2023-04-26T14:59:50;4.30;;;1.77;;
58354;SDS011;44160;49.080;19.302;2023-04-26T15:02:16;5.97;;;1.70;;
58354;SDS011;44160;49.080;19.302;2023-04-26T15:04:45;3.67;;;1.60;;
58354;SDS011;44160;49.080;19.302;2023-04-26T15:07:12;2.58;;;1.48;;